sensor_id;sensor_type;location;lat;lon;timestamp;pressure;altitude;pressure_sealevel;temperature;humidity
74230;BME280;62589;12.568;99.958;2023-03-14T00:00:09;100963.16;;;31.69;51.18
74230;BME280;62589;12.568;99.958;2023-03-14T00:02:37;100966.00;;;31.73;51.49
74230;BME280;62589;12.568;99.958;2023-03-14T00:05:04;100968.78;;;31.73;51.14
74230;BME280;62589;12.568;99.958;2023-03-14T00:07:35;100964.03;;;31.73;52.19
74230;BME280;62589;12.568;99.958;2023-03-14T00:10:12;100969.56;;;31.73;51.65
74230;BME280;62589;12.568;99.958;2023-03-14T00:12:40;100975.97;;;31.77;51.92
74230;BME280;62589;12.568;99.958;2023-03-14T00:15:07;100973.63;;;31.80;51.69
74230;BME280;62589;12.568;99.958;2023-03-14T00:17:35;100986.38;;;31.84;52.53
74230;BME280;62589;12.568;99.958;2023-03-14T00:20:03;100984.00;;;31.86;52.29
74230;BME280;62589;12.568;99.958;2023-03-14T00:22:41;100977.28;;;31.87;52.58
74230;BME280;62589;12.568;99.958;2023-03-14T00:25:10;100976.97;;;31.92;52.07
74230;BME280;62589;12.568;99.958;2023-03-14T00:27:37;100986.94;;;31.97;52.57
74230;BME280;62589;12.568;99.958;2023-03-14T00:30:04;100994.09;;;31.98;52.18
74230;BME280;62589;12.568;99.958;2023-03-14T00:32:31;100992.16;;;32.02;51.58
74230;BME280;62589;12.568;99.958;2023-03-14T00:34:58;100998.19;;;32.07;51.67
74230;BME280;62589;12.568;99.958;2023-03-14T00:37:24;100991.50;;;32.12;51.63
74230;BME280;62589;12.568;99.958;2023-03-14T00:39:51;100994.31;;;32.16;51.38
74230;BME280;62589;12.568;99.958;2023-03-14T00:42:18;100997.94;;;32.20;51.20
74230;BME280;62589;12.568;99.958;2023-03-14T00:44:44;101009.13;;;32.23;51.28
74230;BME280;62589;12.568;99.958;2023-03-14T00:47:10;101003.22;;;32.28;50.74
74230;BME280;62589;12.568;99.958;2023-03-14T00:49:37;101006.84;;;32.32;51.03
74230;BME280;62589;12.568;99.958;2023-03-14T00:52:03;101018.41;;;32.34;50.95
74230;BME280;62589;12.568;99.958;2023-03-14T00:54:30;101017.66;;;32.37;50.27
74230;BME280;62589;12.568;99.958;2023-03-14T00:56:56;101008.56;;;32.40;50.45
74230;BME280;62589;12.568;99.958;2023-03-14T00:59:23;101017.69;;;32.44;50.62
74230;BME280;62589;12.568;99.958;2023-03-14T01:01:49;101034.06;;;32.50;50.44
74230;BME280;62589;12.568;99.958;2023-03-14T01:04:16;101037.69;;;32.54;50.03
74230;BME280;62589;12.568;99.958;2023-03-14T01:06:42;101034.13;;;32.57;49.91
74230;BME280;62589;12.568;99.958;2023-03-14T01:09:09;101046.91;;;32.61;49.94
74230;BME280;62589;12.568;99.958;2023-03-14T01:11:36;101046.91;;;32.65;50.02
74230;BME280;62589;12.568;99.958;2023-03-14T01:14:03;101055.31;;;32.68;49.52
74230;BME280;62589;12.568;99.958;2023-03-14T01:16:32;101054.16;;;32.73;49.46
74230;BME280;62589;12.568;99.958;2023-03-14T01:18:59;101055.03;;;32.77;49.26
74230;BME280;62589;12.568;99.958;2023-03-14T01:21:29;101049.09;;;32.78;48.69
74230;BME280;62589;12.568;99.958;2023-03-14T01:23:58;101067.06;;;32.88;48.81
74230;BME280;62589;12.568;99.958;2023-03-14T01:26:26;101061.56;;;32.92;48.62
74230;BME280;62589;12.568;99.958;2023-03-14T01:28:54;101056.88;;;32.99;48.46
74230;BME280;62589;12.568;99.958;2023-03-14T01:31:20;101057.28;;;33.05;47.96
74230;BME280;62589;12.568;99.958;2023-03-14T01:33:47;101063.31;;;33.10;47.64
74230;BME280;62589;12.568;99.958;2023-03-14T01:36:14;101072.13;;;33.16;47.13
74230;BME280;62589;12.568;99.958;2023-03-14T01:38:40;101071.78;;;33.21;47.09
74230;BME280;62589;12.568;99.958;2023-03-14T01:41:09;101074.59;;;33.25;46.65
74230;BME280;62589;12.568;99.958;2023-03-14T01:43:38;101083.03;;;33.32;46.40
74230;BME280;62589;12.568;99.958;2023-03-14T01:49:24;101087.53;;;33.47;46.50
74230;BME280;62589;12.568;99.958;2023-03-14T01:54:45;101084.03;;;33.57;46.07
74230;BME280;62589;12.568;99.958;2023-03-14T01:57:28;101093.25;;;33.68;45.58
74230;BME280;62589;12.568;99.958;2023-03-14T02:00:13;101093.69;;;33.74;44.84
74230;BME280;62589;12.568;99.958;2023-03-14T02:02:46;101093.31;;;33.75;45.07
74230;BME280;62589;12.568;99.958;2023-03-14T02:05:14;101098.25;;;33.93;44.98
74230;BME280;62589;12.568;99.958;2023-03-14T02:07:51;101091.84;;;33.89;44.71
74230;BME280;62589;12.568;99.958;2023-03-14T02:10:20;101102.22;;;33.92;44.68
74230;BME280;62589;12.568;99.958;2023-03-14T02:12:49;101107.84;;;33.99;44.36
74230;BME280;62589;12.568;99.958;2023-03-14T02:15:17;101098.31;;;34.03;44.57
74230;BME280;62589;12.568;99.958;2023-03-14T02:17:44;101099.53;;;34.09;44.53
74230;BME280;62589;12.568;99.958;2023-03-14T02:20:28;101110.34;;;34.18;44.82
74230;BME280;62589;12.568;99.958;2023-03-14T02:22:57;101107.19;;;34.23;43.93
74230;BME280;62589;12.568;99.958;2023-03-14T02:25:58;101102.06;;;34.32;44.09
74230;BME280;62589;12.568;99.958;2023-03-14T02:28:38;101106.91;;;34.39;43.82
74230;BME280;62589;12.568;99.958;2023-03-14T02:31:11;101104.94;;;34.43;43.36
74230;BME280;62589;12.568;99.958;2023-03-14T02:33:38;101119.28;;;34.49;43.39
74230;BME280;62589;12.568;99.958;2023-03-14T02:36:13;101125.66;;;34.53;42.71
74230;BME280;62589;12.568;99.958;2023-03-14T02:39:05;101122.94;;;34.63;43.10
74230;BME280;62589;12.568;99.958;2023-03-14T02:42:08;101114.19;;;34.68;42.91
74230;BME280;62589;12.568;99.958;2023-03-14T02:47:51;101117.00;;;34.75;42.63
74230;BME280;62589;12.568;99.958;2023-03-14T02:50:24;101122.22;;;34.80;43.04
74230;BME280;62589;12.568;99.958;2023-03-14T02:52:51;101113.09;;;34.87;42.57
74230;BME280;62589;12.568;99.958;2023-03-14T02:55:27;101118.25;;;34.92;42.64
74230;BME280;62589;12.568;99.958;2023-03-14T02:58:03;101112.69;;;34.96;42.30
74230;BME280;62589;12.568;99.958;2023-03-14T03:00:38;101114.72;;;35.02;41.95
74230;BME280;62589;12.568;99.958;2023-03-14T03:03:05;101121.13;;;35.10;42.10
74230;BME280;62589;12.568;99.958;2023-03-14T03:05:34;101113.94;;;35.09;42.03
74230;BME280;62589;12.568;99.958;2023-03-14T03:08:01;101111.53;;;35.14;41.64
74230;BME280;62589;12.568;99.958;2023-03-14T03:10:28;101108.75;;;35.22;41.92
74230;BME280;62589;12.568;99.958;2023-03-14T03:12:58;101106.78;;;35.22;41.84
74230;BME280;62589;12.568;99.958;2023-03-14T03:15:31;101112.34;;;35.26;42.23
74230;BME280;62589;12.568;99.958;2023-03-14T03:18:04;101116.38;;;35.32;41.33
74230;BME280;62589;12.568;99.958;2023-03-14T03:20:44;101117.19;;;35.39;41.59
74230;BME280;62589;12.568;99.958;2023-03-14T03:23:11;101114.78;;;35.45;41.50
74230;BME280;62589;12.568;99.958;2023-03-14T03:25:38;101109.22;;;35.52;41.47
74230;BME280;62589;12.568;99.958;2023-03-14T03:28:05;101102.00;;;35.58;41.67
74230;BME280;62589;12.568;99.958;2023-03-14T03:30:40;101105.22;;;35.60;41.09
74230;BME280;62589;12.568;99.958;2023-03-14T03:33:07;101093.25;;;35.63;41.25
74230;BME280;62589;12.568;99.958;2023-03-14T03:35:34;101099.63;;;35.71;41.09
74230;BME280;62589;12.568;99.958;2023-03-14T03:38:00;101096.44;;;35.69;40.94
74230;BME280;62589;12.568;99.958;2023-03-14T03:40:27;101107.63;;;35.72;40.56
74230;BME280;62589;12.568;99.958;2023-03-14T03:42:53;101092.44;;;35.77;40.80
74230;BME280;62589;12.568;99.958;2023-03-14T03:45:20;101095.25;;;35.80;40.90
74230;BME280;62589;12.568;99.958;2023-03-14T03:47:47;101086.84;;;35.77;39.95
74230;BME280;62589;12.568;99.958;2023-03-14T03:50:13;101091.25;;;35.74;39.75
74230;BME280;62589;12.568;99.958;2023-03-14T03:52:40;101086.06;;;35.76;40.38
74230;BME280;62589;12.568;99.958;2023-03-14T03:55:06;101078.09;;;35.75;40.73
74230;BME280;62589;12.568;99.958;2023-03-14T03:57:33;101074.88;;;35.80;40.84
74230;BME280;62589;12.568;99.958;2023-03-14T04:00:00;101064.50;;;35.80;40.60
74230;BME280;62589;12.568;99.958;2023-03-14T04:02:26;101066.91;;;35.86;41.04
74230;BME280;62589;12.568;99.958;2023-03-14T04:04:52;101070.50;;;35.90;40.80
74230;BME280;62589;12.568;99.958;2023-03-14T04:07:19;101065.66;;;35.97;40.62
74230;BME280;62589;12.568;99.958;2023-03-14T04:09:45;101066.84;;;36.00;40.48
74230;BME280;62589;12.568;99.958;2023-03-14T04:12:12;101061.66;;;36.09;40.66
74230;BME280;62589;12.568;99.958;2023-03-14T04:14:39;101056.88;;;36.09;40.36
74230;BME280;62589;12.568;99.958;2023-03-14T04:17:07;101047.66;;;36.16;40.52
74230;BME280;62589;12.568;99.958;2023-03-14T04:19:34;101040.44;;;36.19;40.49
74230;BME280;62589;12.568;99.958;2023-03-14T04:22:01;101038.44;;;36.19;40.35
74230;BME280;62589;12.568;99.958;2023-03-14T04:24:28;101038.44;;;36.19;40.04
74230;BME280;62589;12.568;99.958;2023-03-14T04:26:54;101042.06;;;36.16;40.24
74230;BME280;62589;12.568;99.958;2023-03-14T04:29:21;101042.88;;;36.13;40.29
74230;BME280;62589;12.568;99.958;2023-03-14T04:31:47;101035.69;;;36.08;39.81
74230;BME280;62589;12.568;99.958;2023-03-14T04:34:14;101021.31;;;36.10;40.54
74230;BME280;62589;12.568;99.958;2023-03-14T04:36:40;101026.91;;;36.10;40.44
74230;BME280;62589;12.568;99.958;2023-03-14T04:39:07;101015.31;;;36.11;40.01
74230;BME280;62589;12.568;99.958;2023-03-14T04:41:33;101015.31;;;36.11;40.50
74230;BME280;62589;12.568;99.958;2023-03-14T04:44:00;101001.75;;;36.13;40.37
74230;BME280;62589;12.568;99.958;2023-03-14T04:46:26;100996.56;;;36.12;40.28
74230;BME280;62589;12.568;99.958;2023-03-14T04:48:53;100991.38;;;36.14;40.59
74230;BME280;62589;12.568;99.958;2023-03-14T04:51:21;100998.56;;;36.15;40.49
74230;BME280;62589;12.568;99.958;2023-03-14T04:53:49;100985.38;;;36.12;40.60
74230;BME280;62589;12.568;99.958;2023-03-14T04:56:16;100990.19;;;36.04;40.32
74230;BME280;62589;12.568;99.958;2023-03-14T04:58:42;100986.59;;;36.11;40.33
74230;BME280;62589;12.568;99.958;2023-03-14T05:01:09;100977.41;;;36.07;40.46
74230;BME280;62589;12.568;99.958;2023-03-14T05:03:36;100980.59;;;36.09;40.94
74230;BME280;62589;12.568;99.958;2023-03-14T05:06:04;100975.84;;;35.99;40.83
74230;BME280;62589;12.568;99.958;2023-03-14T05:08:31;100967.44;;;36.02;41.07
74230;BME280;62589;12.568;99.958;2023-03-14T05:10:58;100971.03;;;36.03;41.22
74230;BME280;62589;12.568;99.958;2023-03-14T05:13:24;100949.50;;;36.00;40.95
74230;BME280;62589;12.568;99.958;2023-03-14T05:15:51;100963.84;;;36.02;40.71
74230;BME280;62589;12.568;99.958;2023-03-14T05:18:18;100955.06;;;36.03;40.98
74230;BME280;62589;12.568;99.958;2023-03-14T05:20:45;100955.06;;;36.03;41.08
74230;BME280;62589;12.568;99.958;2023-03-14T05:23:14;100939.88;;;36.04;40.95
74230;BME280;62589;12.568;99.958;2023-03-14T05:25:43;100931.13;;;36.02;41.16
74230;BME280;62589;12.568;99.958;2023-03-14T05:28:15;100934.31;;;36.01;41.32
74230;BME280;62589;12.568;99.958;2023-03-14T05:30:43;100937.09;;;36.04;41.25
74230;BME280;62589;12.568;99.958;2023-03-14T05:33:13;100934.31;;;36.04;41.70
74230;BME280;62589;12.568;99.958;2023-03-14T05:35:39;100928.69;;;36.08;41.30
74230;BME280;62589;12.568;99.958;2023-03-14T05:38:06;100924.72;;;36.05;41.54
74230;BME280;62589;12.568;99.958;2023-03-14T05:40:32;100921.13;;;36.05;41.65
74230;BME280;62589;12.568;99.958;2023-03-14T05:43:00;100915.94;;;36.07;41.48
74230;BME280;62589;12.568;99.958;2023-03-14T05:45:26;100905.94;;;36.06;41.41
74230;BME280;62589;12.568;99.958;2023-03-14T05:47:52;100893.56;;;36.07;41.36
74230;BME280;62589;12.568;99.958;2023-03-14T05:50:19;100891.19;;;36.05;41.33
74230;BME280;62589;12.568;99.958;2023-03-14T05:52:46;100891.97;;;36.09;42.21
74230;BME280;62589;12.568;99.958;2023-03-14T05:55:12;100873.56;;;36.15;41.79
74230;BME280;62589;12.568;99.958;2023-03-14T05:57:38;100872.69;;;36.22;41.98
74230;BME280;62589;12.568;99.958;2023-03-14T06:00:05;100873.91;;;36.28;42.31
74230;BME280;62589;12.568;99.958;2023-03-14T06:02:32;100876.25;;;36.33;42.29
74230;BME280;62589;12.568;99.958;2023-03-14T06:04:58;100862.25;;;36.37;41.83
74230;BME280;62589;12.568;99.958;2023-03-14T06:07:25;100864.59;;;36.42;41.92
74230;BME280;62589;12.568;99.958;2023-03-14T06:09:51;100855.81;;;36.43;41.26
74230;BME280;62589;12.568;99.958;2023-03-14T06:12:18;100858.56;;;36.47;41.18
74230;BME280;62589;12.568;99.958;2023-03-14T06:14:44;100846.16;;;36.52;41.24
74230;BME280;62589;12.568;99.958;2023-03-14T06:17:11;100844.53;;;36.54;40.98
74230;BME280;62589;12.568;99.958;2023-03-14T06:19:37;100840.94;;;36.54;40.26
74230;BME280;62589;12.568;99.958;2023-03-14T06:22:04;100834.56;;;36.53;39.63
74230;BME280;62589;12.568;99.958;2023-03-14T06:24:30;100842.56;;;36.51;39.76
74230;BME280;62589;12.568;99.958;2023-03-14T06:26:57;100840.53;;;36.55;39.70
74230;BME280;62589;12.568;99.958;2023-03-14T06:29:23;100827.75;;;36.58;39.64
74230;BME280;62589;12.568;99.958;2023-03-14T06:32:19;100836.03;;;36.65;39.66
74230;BME280;62589;12.568;99.958;2023-03-14T06:34:46;100823.34;;;36.57;39.01
74230;BME280;62589;12.568;99.958;2023-03-14T06:37:13;100820.91;;;36.59;39.02
74230;BME280;62589;12.568;99.958;2023-03-14T06:39:39;100812.97;;;36.57;39.09
74230;BME280;62589;12.568;99.958;2023-03-14T06:42:06;100818.50;;;36.61;38.94
74230;BME280;62589;12.568;99.958;2023-03-14T06:44:33;100812.91;;;36.61;39.06
74230;BME280;62589;12.568;99.958;2023-03-14T06:46:59;100811.69;;;36.62;39.26
74230;BME280;62589;12.568;99.958;2023-03-14T06:49:28;100812.91;;;36.61;39.96
74230;BME280;62589;12.568;99.958;2023-03-14T06:51:55;100804.56;;;36.57;39.56
74230;BME280;62589;12.568;99.958;2023-03-14T06:54:22;100805.31;;;36.61;39.32
74230;BME280;62589;12.568;99.958;2023-03-14T06:56:48;100800.13;;;36.60;39.02
74230;BME280;62589;12.568;99.958;2023-03-14T06:59:15;100796.97;;;36.58;38.97
74230;BME280;62589;12.568;99.958;2023-03-14T07:01:41;100783.81;;;36.55;39.02
74230;BME280;62589;12.568;99.958;2023-03-14T07:04:09;100784.25;;;36.49;39.21
74230;BME280;62589;12.568;99.958;2023-03-14T07:06:36;100782.28;;;36.46;39.18
74230;BME280;62589;12.568;99.958;2023-03-14T07:09:02;100777.06;;;36.48;38.98
74230;BME280;62589;12.568;99.958;2023-03-14T07:11:29;100771.47;;;36.48;39.10
74230;BME280;62589;12.568;99.958;2023-03-14T07:13:55;100766.25;;;36.51;39.04
74230;BME280;62589;12.568;99.958;2023-03-14T07:16:22;100755.91;;;36.47;39.41
74230;BME280;62589;12.568;99.958;2023-03-14T07:18:48;100751.06;;;36.52;39.09
74230;BME280;62589;12.568;99.958;2023-03-14T07:21:15;100754.25;;;36.54;39.31
74230;BME280;62589;12.568;99.958;2023-03-14T07:23:41;100749.91;;;36.49;39.27
74230;BME280;62589;12.568;99.958;2023-03-14T07:26:11;100746.66;;;36.54;39.30
74230;BME280;62589;12.568;99.958;2023-03-14T07:28:37;100738.25;;;36.58;39.19
74230;BME280;62589;12.568;99.958;2023-03-14T07:31:04;100734.66;;;36.57;39.09
74230;BME280;62589;12.568;99.958;2023-03-14T07:33:31;100737.47;;;36.54;38.65
74230;BME280;62589;12.568;99.958;2023-03-14T07:35:57;100734.28;;;36.55;38.32
74230;BME280;62589;12.568;99.958;2023-03-14T07:38:24;100725.03;;;36.58;38.53
74230;BME280;62589;12.568;99.958;2023-03-14T07:40:50;100722.28;;;36.55;38.62
74230;BME280;62589;12.568;99.958;2023-03-14T07:43:17;100713.47;;;36.56;39.25
74230;BME280;62589;12.568;99.958;2023-03-14T07:45:46;100714.31;;;36.53;39.07
74230;BME280;62589;12.568;99.958;2023-03-14T07:48:12;100714.28;;;36.57;38.92
74230;BME280;62589;12.568;99.958;2023-03-14T07:50:39;100702.28;;;36.56;38.96
74230;BME280;62589;12.568;99.958;2023-03-14T07:53:05;100699.09;;;36.58;39.12
74230;BME280;62589;12.568;99.958;2023-03-14T07:55:32;100697.84;;;36.59;38.78
74230;BME280;62589;12.568;99.958;2023-03-14T07:57:58;100691.56;;;36.51;38.99
74230;BME280;62589;12.568;99.958;2023-03-14T08:00:25;100685.59;;;36.49;38.95
74230;BME280;62589;12.568;99.958;2023-03-14T08:02:51;100680.38;;;36.51;39.25
74230;BME280;62589;12.568;99.958;2023-03-14T08:05:17;100676.78;;;36.51;38.55
74230;BME280;62589;12.568;99.958;2023-03-14T08:07:44;100676.41;;;36.48;39.03
74230;BME280;62589;12.568;99.958;2023-03-14T08:10:11;100670.81;;;36.48;39.10
74230;BME280;62589;12.568;99.958;2023-03-14T08:12:41;100678.81;;;36.46;39.02
74230;BME280;62589;12.568;99.958;2023-03-14T08:15:08;100673.25;;;36.43;38.92
74230;BME280;62589;12.568;99.958;2023-03-14T08:17:34;100666.06;;;36.42;38.39
74230;BME280;62589;12.568;99.958;2023-03-14T08:20:01;100666.06;;;36.42;38.81
74230;BME280;62589;12.568;99.958;2023-03-14T08:22:32;100663.66;;;36.44;39.19
74230;BME280;62589;12.568;99.958;2023-03-14T08:24:58;100659.28;;;36.43;39.58
74230;BME280;62589;12.568;99.958;2023-03-14T08:27:25;100659.69;;;36.41;39.22
74230;BME280;62589;12.568;99.958;2023-03-14T08:29:51;100657.72;;;36.38;39.31
74230;BME280;62589;12.568;99.958;2023-03-14T08:32:18;100660.91;;;36.40;39.17
74230;BME280;62589;12.568;99.958;2023-03-14T08:34:46;100660.91;;;36.40;38.96
74230;BME280;62589;12.568;99.958;2023-03-14T08:37:12;100661.31;;;36.39;38.92
74230;BME280;62589;12.568;99.958;2023-03-14T08:39:39;100656.91;;;36.38;39.14
74230;BME280;62589;12.568;99.958;2023-03-14T08:42:05;100653.38;;;36.37;39.23
74230;BME280;62589;12.568;99.958;2023-03-14T08:44:32;100656.16;;;36.37;39.31
74230;BME280;62589;12.568;99.958;2023-03-14T08:46:58;100655.38;;;36.37;39.18
74230;BME280;62589;12.568;99.958;2023-03-14T08:49:24;100658.97;;;36.37;39.19
74230;BME280;62589;12.568;99.958;2023-03-14T08:51:51;100649.78;;;36.37;39.02
74230;BME280;62589;12.568;99.958;2023-03-14T08:54:17;100649.78;;;36.37;38.89
74230;BME280;62589;12.568;99.958;2023-03-14T08:56:44;100660.16;;;36.36;39.29
74230;BME280;62589;12.568;99.958;2023-03-14T08:59:11;100656.19;;;36.34;39.19
74230;BME280;62589;12.568;99.958;2023-03-14T09:01:37;100652.59;;;36.33;39.06
74230;BME280;62589;12.568;99.958;2023-03-14T09:04:04;100642.25;;;36.30;39.08
74230;BME280;62589;12.568;99.958;2023-03-14T09:06:30;100647.84;;;36.30;39.07
74230;BME280;62589;12.568;99.958;2023-03-14T09:08:57;100639.06;;;36.28;39.08
74230;BME280;62589;12.568;99.958;2023-03-14T09:11:23;100637.47;;;36.27;38.92
74230;BME280;62589;12.568;99.958;2023-03-14T09:13:50;100633.47;;;36.28;39.13
74230;BME280;62589;12.568;99.958;2023-03-14T09:16:17;100641.88;;;36.28;39.21
74230;BME280;62589;12.568;99.958;2023-03-14T09:18:43;100637.47;;;36.27;39.24
74230;BME280;62589;12.568;99.958;2023-03-14T09:21:10;100637.09;;;36.25;39.13
74230;BME280;62589;12.568;99.958;2023-03-14T09:23:36;100639.91;;;36.25;39.25
74230;BME280;62589;12.568;99.958;2023-03-14T09:26:03;100651.88;;;36.26;39.17
74230;BME280;62589;12.568;99.958;2023-03-14T09:28:30;100655.88;;;36.25;38.94
74230;BME280;62589;12.568;99.958;2023-03-14T09:30:56;100644.69;;;36.25;39.23
74230;BME280;62589;12.568;99.958;2023-03-14T09:33:24;100653.88;;;36.25;39.39
74230;BME280;62589;12.568;99.958;2023-03-14T09:35:50;100644.69;;;36.25;39.20
74230;BME280;62589;12.568;99.958;2023-03-14T09:38:17;100647.06;;;36.23;39.09
74230;BME280;62589;12.568;99.958;2023-03-14T09:40:43;100645.50;;;36.22;39.28
74230;BME280;62589;12.568;99.958;2023-03-14T09:43:11;100651.09;;;36.18;39.46
74230;BME280;62589;12.568;99.958;2023-03-14T09:45:41;100641.50;;;36.19;39.16
74230;BME280;62589;12.568;99.958;2023-03-14T09:48:22;100644.72;;;36.17;39.49
74230;BME280;62589;12.568;99.958;2023-03-14T09:50:56;100641.13;;;36.17;39.44
74230;BME280;62589;12.568;99.958;2023-03-14T09:53:34;100642.78;;;36.14;39.05
74230;BME280;62589;12.568;99.958;2023-03-14T09:56:03;100645.19;;;36.12;39.17
74230;BME280;62589;12.568;99.958;2023-03-14T09:58:29;100639.22;;;36.10;38.97
74230;BME280;62589;12.568;99.958;2023-03-14T10:00:57;100637.25;;;36.07;38.97
74230;BME280;62589;12.568;99.958;2023-03-14T10:03:33;100642.03;;;36.07;38.98
74230;BME280;62589;12.568;99.958;2023-03-14T10:06:00;100638.06;;;36.04;38.58
74230;BME280;62589;12.568;99.958;2023-03-14T10:08:26;100648.47;;;36.04;38.86
74230;BME280;62589;12.568;99.958;2023-03-14T10:10:54;100648.50;;;36.00;39.00
74230;BME280;62589;12.568;99.958;2023-03-14T10:13:25;100650.09;;;35.98;39.50
74230;BME280;62589;12.568;99.958;2023-03-14T10:16:00;100646.09;;;35.99;39.23
74230;BME280;62589;12.568;99.958;2023-03-14T10:18:29;100650.09;;;35.98;38.98
74230;BME280;62589;12.568;99.958;2023-03-14T10:21:15;100652.50;;;35.99;38.44
74230;BME280;62589;12.568;99.958;2023-03-14T10:23:43;100650.97;;;35.95;38.99
74230;BME280;62589;12.568;99.958;2023-03-14T10:26:18;100653.38;;;35.93;39.19
74230;BME280;62589;12.568;99.958;2023-03-14T10:28:47;100648.59;;;35.90;39.05
74230;BME280;62589;12.568;99.958;2023-03-14T10:31:17;100654.59;;;35.88;39.12
74230;BME280;62589;12.568;99.958;2023-03-14T10:34:02;100654.59;;;35.88;38.95
74230;BME280;62589;12.568;99.958;2023-03-14T10:36:33;100660.63;;;35.83;39.34
74230;BME280;62589;12.568;99.958;2023-03-14T10:39:33;100659.03;;;35.82;38.93
74230;BME280;62589;12.568;99.958;2023-03-14T10:42:21;100665.03;;;35.80;38.86
74230;BME280;62589;12.568;99.958;2023-03-14T10:44:54;100667.88;;;35.73;39.06
74230;BME280;62589;12.568;99.958;2023-03-14T10:47:24;100667.88;;;35.70;39.21
74230;BME280;62589;12.568;99.958;2023-03-14T10:49:51;100668.69;;;35.70;39.72
74230;BME280;62589;12.568;99.958;2023-03-14T10:52:24;100671.91;;;35.65;39.30
74230;BME280;62589;12.568;99.958;2023-03-14T10:54:57;100675.91;;;35.64;39.39
74230;BME280;62589;12.568;99.958;2023-03-14T10:57:25;100664.34;;;35.62;39.61
74230;BME280;62589;12.568;99.958;2023-03-14T10:59:53;100667.53;;;35.61;39.74
74230;BME280;62589;12.568;99.958;2023-03-14T11:05:34;100666.34;;;35.58;39.87
74230;BME280;62589;12.568;99.958;2023-03-14T11:11:18;100672.75;;;35.55;39.96
74230;BME280;62589;12.568;99.958;2023-03-14T11:14:07;100678.41;;;35.48;40.34
74230;BME280;62589;12.568;99.958;2023-03-14T11:16:59;100684.38;;;35.50;40.11
74230;BME280;62589;12.568;99.958;2023-03-14T11:19:43;100684.81;;;35.45;40.39
74230;BME280;62589;12.568;99.958;2023-03-14T11:22:30;100678.44;;;35.41;40.15
74230;BME280;62589;12.568;99.958;2023-03-14T11:25:12;100690.03;;;35.36;40.06
74230;BME280;62589;12.568;99.958;2023-03-14T11:30:35;100700.84;;;35.30;40.03
74230;BME280;62589;12.568;99.958;2023-03-14T11:33:16;100703.25;;;35.28;40.21
74230;BME280;62589;12.568;99.958;2023-03-14T11:36:06;100706.81;;;35.25;40.64
74230;BME280;62589;12.568;99.958;2023-03-14T11:38:55;100716.78;;;35.26;40.60
74230;BME280;62589;12.568;99.958;2023-03-14T11:41:32;100713.63;;;35.21;40.65
74230;BME280;62589;12.568;99.958;2023-03-14T11:44:03;100713.63;;;35.21;40.88
74230;BME280;62589;12.568;99.958;2023-03-14T11:52:34;100720.06;;;35.10;40.88
74230;BME280;62589;12.568;99.958;2023-03-14T11:55:17;100718.47;;;35.09;41.07
74230;BME280;62589;12.568;99.958;2023-03-14T11:57:46;100722.84;;;35.10;41.01
74230;BME280;62589;12.568;99.958;2023-03-14T12:00:20;100725.25;;;35.05;41.07
74230;BME280;62589;12.568;99.958;2023-03-14T12:03:10;100735.16;;;35.17;40.92
74230;BME280;62589;12.568;99.958;2023-03-14T12:08:42;100734.84;;;35.00;41.57
74230;BME280;62589;12.568;99.958;2023-03-14T12:13:59;100742.41;;;34.96;41.27
74230;BME280;62589;12.568;99.958;2023-03-14T12:16:34;100753.59;;;34.93;41.43
74230;BME280;62589;12.568;99.958;2023-03-14T12:19:14;100759.56;;;34.95;41.53
74230;BME280;62589;12.568;99.958;2023-03-14T12:21:57;100761.59;;;34.91;41.59
74230;BME280;62589;12.568;99.958;2023-03-14T12:24:31;100763.97;;;34.89;41.49
74230;BME280;62589;12.568;99.958;2023-03-14T12:27:00;100759.19;;;34.86;41.08
74230;BME280;62589;12.568;99.958;2023-03-14T12:29:27;100761.19;;;34.82;41.80
74230;BME280;62589;12.568;99.958;2023-03-14T12:32:24;100771.16;;;34.86;41.42
74230;BME280;62589;12.568;99.958;2023-03-14T12:34:51;100769.16;;;34.79;41.75
74230;BME280;62589;12.568;99.958;2023-03-14T12:40:21;100783.50;;;34.78;41.49
74230;BME280;62589;12.568;99.958;2023-03-14T12:43:04;100780.31;;;34.72;41.94
74230;BME280;62589;12.568;99.958;2023-03-14T12:45:32;100783.09;;;34.72;42.52
74230;BME280;62589;12.568;99.958;2023-03-14T12:48:26;100778.72;;;34.71;42.97
74230;BME280;62589;12.568;99.958;2023-03-14T12:51:18;100789.09;;;34.71;43.79
74230;BME280;62589;12.568;99.958;2023-03-14T12:57:11;100796.28;;;34.68;43.43
74230;BME280;62589;12.568;99.958;2023-03-14T12:59:56;100790.28;;;34.63;43.18
74230;BME280;62589;12.568;99.958;2023-03-14T13:02:41;100799.84;;;34.62;43.05
74230;BME280;62589;12.568;99.958;2023-03-14T13:05:27;100806.63;;;34.61;42.30
74230;BME280;62589;12.568;99.958;2023-03-14T13:08:05;100811.78;;;34.55;42.86
74230;BME280;62589;12.568;99.958;2023-03-14T13:10:45;100814.97;;;34.54;43.21
74230;BME280;62589;12.568;99.958;2023-03-14T13:13:21;100819.00;;;34.49;43.27
74230;BME280;62589;12.568;99.958;2023-03-14T13:15:57;100817.00;;;34.46;43.22
74230;BME280;62589;12.568;99.958;2023-03-14T13:18:37;100820.19;;;34.48;43.24
74230;BME280;62589;12.568;99.958;2023-03-14T13:21:24;100820.59;;;34.50;43.06
74230;BME280;62589;12.568;99.958;2023-03-14T13:23:57;100828.94;;;34.43;43.79
74230;BME280;62589;12.568;99.958;2023-03-14T13:26:32;100825.34;;;34.42;43.41
74230;BME280;62589;12.568;99.958;2023-03-14T13:28:59;100814.59;;;34.41;43.36
74230;BME280;62589;12.568;99.958;2023-03-14T13:31:26;100811.41;;;34.39;43.41